This is the latest recevied weather packets stored in our database for station/object OK2ILA-10. If no packets are shown the sender has not sent any weather packets the latest 1 day(s).
| Time | Temp. | Humidity | Pressure | Rain* | Wind** | Luminosity | Snow |
|---|---|---|---|---|---|---|---|
| 1778048805 | 16.67° C | 65% | 1009 hPa | - | - | - | - |
| 1778048800 | 16.67° C | 65% | 1009 hPa | - | - | - | - |
| 1778048200 | 16.11° C | 65% | 1008.9 hPa | - | - | - | - |
| 1778047005 | 15.56° C | 66% | 1008.9 hPa | - | - | - | - |
| 1778046399 | 15° C | 68% | 1008.9 hPa | - | - | - | - |
| 1778045205 | 15° C | 67% | 1008.9 hPa | - | - | - | - |
| 1778045199 | 15° C | 67% | 1008.9 hPa | - | - | - | - |
| 1778044598 | 15.56° C | 65% | 1008.9 hPa | - | - | - | - |
| 1778043401 | 16.11° C | 64% | 1008.5 hPa | - | - | - | - |
| 1778043397 | 16.11° C | 64% | 1008.5 hPa | - | - | - | - |
| 1778042801 | 13.89° C | 69% | 1008.5 hPa | - | - | - | - |
| 1778042797 | 13.89° C | 69% | 1008.5 hPa | - | - | - | - |
| 1778042197 | 13.89° C | 68% | 1008.4 hPa | - | - | - | - |
| 1778041000 | 16.67° C | 62% | 1008.2 hPa | - | - | - | - |
| 1778040996 | 16.67° C | 62% | 1008.2 hPa | - | - | - | - |
| 1778040400 | 16.11° C | 64% | 1008.1 hPa | - | - | - | - |
| 1778040396 | 16.11° C | 64% | 1008.1 hPa | - | - | - | - |
| 1778039800 | 14.44° C | 68% | 1008 hPa | - | - | - | - |
| 1778039796 | 14.44° C | 68% | 1008 hPa | - | - | - | - |
| 1778039200 | 13.33° C | 71% | 1007.9 hPa | - | - | - | - |
| 1778039196 | 13.33° C | 71% | 1007.9 hPa | - | - | - | - |
| 1778038599 | 12.78° C | 71% | 1007.9 hPa | - | - | - | - |
| 1778037999 | 12.78° C | 71% | 1007.8 hPa | - | - | - | - |
| 1778037995 | 12.78° C | 71% | 1007.8 hPa | - | - | - | - |
| 1778037399 | 12.78° C | 70% | 1007.7 hPa | - | - | - | - |
* Rain since midnight (hover to see other rain measurements)
** Current wind speed in m/s (hover to see current wind gust speed)